createdAt,value
2023-04-22T00:00:40.677Z,89.73
2023-04-22T00:01:40.665Z,90.08
2023-04-22T00:02:40.697Z,89.77
2023-04-22T00:03:43.697Z,90.04
2023-04-22T00:04:40.902Z,90.19
2023-04-22T00:05:40.650Z,90.19
2023-04-22T00:06:40.595Z,89.67
2023-04-22T00:07:40.587Z,90.19
2023-04-22T00:08:40.567Z,89.87
2023-04-22T00:09:40.908Z,89.77
2023-04-22T00:10:40.566Z,89.87
2023-04-22T00:11:40.536Z,89.87
2023-04-22T00:12:40.558Z,89.67
2023-04-22T00:13:40.520Z,90.08
2023-04-22T00:14:40.519Z,91.11
2023-04-22T00:15:40.516Z,90.60
2023-04-22T00:16:40.609Z,90.80
2023-04-22T00:17:40.552Z,91.01
2023-04-22T00:18:40.462Z,90.80
2023-04-22T00:19:40.859Z,90.97
2023-04-22T00:20:40.439Z,91.01
2023-04-22T00:21:40.454Z,90.80
2023-04-22T00:22:40.413Z,90.60
2023-04-22T00:23:40.422Z,90.50
2023-04-22T00:24:40.388Z,91.28
2023-04-22T00:25:40.388Z,91.28
2023-04-22T00:26:40.368Z,91.49
2023-04-22T00:27:40.393Z,91.07
2023-04-22T00:28:40.345Z,90.87
2023-04-22T00:29:40.588Z,90.56
2023-04-22T00:30:40.349Z,90.72
2023-04-22T00:31:40.354Z,90.72
2023-04-22T00:32:40.350Z,90.52
2023-04-22T00:33:40.306Z,90.72
2023-04-22T00:34:40.300Z,90.72
2023-04-22T00:35:40.286Z,91.03
2023-04-22T00:36:40.252Z,90.37
2023-04-22T00:37:40.266Z,89.95
2023-04-22T00:38:40.238Z,90.16
2023-04-22T00:39:40.615Z,90.99
2023-04-22T00:40:40.212Z,90.16
2023-04-22T00:41:40.207Z,90.26
2023-04-22T00:42:40.185Z,90.12
2023-04-22T00:43:40.196Z,89.65
2023-04-22T00:44:40.162Z,89.61
2023-04-22T00:45:40.186Z,89.61
2023-04-22T00:46:40.221Z,89.81
2023-04-22T00:47:40.189Z,90.12
2023-04-22T00:48:40.120Z,89.71
2023-04-22T00:49:40.380Z,89.65
2023-04-22T00:50:40.095Z,89.92
2023-04-22T00:51:40.097Z,89.03
2023-04-22T00:52:40.087Z,89.13
2023-04-22T00:53:40.087Z,89.13
2023-04-22T00:54:40.053Z,89.03
2023-04-22T00:55:40.056Z,89.03
2023-04-22T00:56:40.044Z,89.03
2023-04-22T00:57:40.070Z,89.75
2023-04-22T00:58:40.032Z,89.95
2023-04-22T00:59:40.336Z,89.95
2023-04-22T01:00:40.045Z,89.75
2023-04-22T01:01:39.982Z,89.65
2023-04-22T01:02:40.166Z,89.95
2023-04-22T01:03:40.189Z,89.95
2023-04-22T01:04:39.967Z,90.06
2023-04-22T01:05:40.058Z,89.95
2023-04-22T01:06:39.922Z,89.92
2023-04-22T01:07:39.944Z,89.95
2023-04-22T01:08:39.902Z,89.87
2023-04-22T01:09:40.251Z,89.19
2023-04-22T01:10:39.891Z,88.84
2023-04-22T01:11:39.867Z,88.64
2023-04-22T01:12:39.869Z,88.53
2023-04-22T01:13:39.868Z,88.22
2023-04-22T01:14:39.844Z,87.50
2023-04-22T01:15:39.824Z,87.74
2023-04-22T01:16:39.838Z,87.74
2023-04-22T01:17:39.857Z,88.26
2023-04-22T01:18:39.814Z,88.06
2023-04-22T01:19:40.225Z,88.16
2023-04-22T01:20:39.766Z,88.47
2023-04-22T01:21:39.829Z,88.26
2023-04-22T01:22:39.758Z,88.26
2023-04-22T01:23:39.762Z,88.10
2023-04-22T01:24:39.734Z,88.06
2023-04-22T01:25:39.715Z,88.20
2023-04-22T01:26:39.730Z,88.41
2023-04-22T01:27:39.699Z,88.76
2023-04-22T01:28:39.688Z,88.55
2023-04-22T01:29:40.115Z,88.76
2023-04-22T01:30:39.663Z,88.45
2023-04-22T01:31:39.696Z,88.55
2023-04-22T01:32:39.673Z,88.86
2023-04-22T01:33:39.621Z,89.07
2023-04-22T01:34:39.629Z,89.28
2023-04-22T01:35:39.605Z,89.28
2023-04-22T01:36:39.636Z,89.17
2023-04-22T01:37:39.615Z,90.14
2023-04-22T01:38:39.570Z,89.87
2023-04-22T01:39:39.831Z,87.98
2023-04-22T01:40:40.450Z,87.66
2023-04-22T01:41:39.537Z,86.70
2023-04-22T01:42:39.534Z,86.63
2023-04-22T01:43:39.518Z,86.29
2023-04-22T01:44:39.529Z,86.18
2023-04-22T01:45:39.578Z,85.97
2023-04-22T01:46:39.486Z,85.38
2023-04-22T01:47:39.540Z,85.07
2023-04-22T01:48:39.461Z,84.45
2023-04-22T01:49:39.768Z,84.66
2023-04-22T01:50:39.440Z,84.77
2023-04-22T01:51:39.430Z,83.84
2023-04-22T01:52:39.444Z,83.77
2023-04-22T01:53:39.441Z,84.80
2023-04-22T01:54:39.391Z,84.59
2023-04-22T01:55:39.384Z,84.53
2023-04-22T01:56:39.373Z,84.70
2023-04-22T01:57:39.378Z,84.94
2023-04-22T01:58:39.367Z,84.74
2023-04-22T01:59:39.597Z,84.84
2023-04-22T02:00:39.328Z,84.64
2023-04-22T02:01:39.361Z,85.05
2023-04-22T02:02:39.352Z,84.84
2023-04-22T02:03:39.396Z,84.94
2023-04-22T02:04:39.305Z,84.53
2023-04-22T02:05:39.272Z,84.22
2023-04-22T02:06:39.287Z,84.99
2023-04-22T02:07:39.290Z,85.60
2023-04-22T02:08:39.262Z,85.64
2023-04-22T02:09:39.720Z,85.85
2023-04-22T02:10:39.222Z,85.44
2023-04-22T02:11:39.228Z,85.64
2023-04-22T02:12:39.219Z,85.54
2023-04-22T02:13:39.188Z,85.68
2023-04-22T02:14:39.172Z,86.20
2023-04-22T02:15:39.210Z,86.26
2023-04-22T02:16:39.164Z,86.51
2023-04-22T02:17:39.162Z,86.51
2023-04-22T02:18:39.133Z,86.34
2023-04-22T02:19:39.625Z,86.65
2023-04-22T02:20:39.131Z,86.65
2023-04-22T02:21:39.121Z,86.76
2023-04-22T02:22:39.083Z,87.37
2023-04-22T02:23:39.069Z,87.99
2023-04-22T02:24:39.080Z,87.93
2023-04-22T02:25:39.090Z,88.04
2023-04-22T02:26:39.064Z,87.93
2023-04-22T02:27:39.050Z,87.73
2023-04-22T02:28:39.016Z,88.24
2023-04-22T02:29:39.199Z,88.04
2023-04-22T02:30:39.033Z,88.14
2023-04-22T02:31:39.051Z,88.45
2023-04-22T02:32:39.105Z,88.86
2023-04-22T02:33:38.994Z,88.55
2023-04-22T02:34:38.947Z,88.55
2023-04-22T02:35:38.962Z,88.65
2023-04-22T02:36:38.933Z,88.96
2023-04-22T02:37:38.928Z,89.17
2023-04-22T02:38:38.902Z,88.96
2023-04-22T02:39:39.116Z,89.07
2023-04-22T02:40:38.883Z,88.96
2023-04-22T02:41:38.912Z,88.65
2023-04-22T02:42:38.877Z,88.45
2023-04-22T02:43:38.842Z,89.17
2023-04-22T02:44:38.838Z,88.86
2023-04-22T02:45:38.837Z,88.86
2023-04-22T02:46:38.904Z,88.76
2023-04-22T02:47:38.932Z,89.17
2023-04-22T02:48:38.792Z,88.86
2023-04-22T02:49:39.117Z,89.07
2023-04-22T02:50:38.786Z,88.86
2023-04-22T02:51:38.774Z,88.82
2023-04-22T02:52:38.749Z,88.76
2023-04-22T02:53:38.738Z,88.82
2023-04-22T02:54:38.739Z,89.03
2023-04-22T02:55:38.717Z,88.61
2023-04-22T02:56:38.707Z,88.78
2023-04-22T02:57:38.725Z,88.89
2023-04-22T02:58:38.699Z,88.57
2023-04-22T02:59:38.869Z,87.66
2023-04-22T03:00:38.751Z,87.35
2023-04-22T03:01:38.647Z,86.18
2023-04-22T03:02:39.043Z,86.39
2023-04-22T03:03:38.777Z,85.52
2023-04-22T03:04:38.731Z,85.22
2023-04-22T03:05:38.610Z,84.56
2023-04-22T03:06:38.685Z,84.42
2023-04-22T03:07:38.572Z,83.59
2023-04-22T03:08:38.713Z,84.52
2023-04-22T03:09:38.826Z,84.72
2023-04-22T03:10:38.571Z,83.70
2023-04-22T03:11:38.531Z,84.00
2023-04-22T03:12:38.539Z,83.90
2023-04-22T03:13:38.555Z,83.90
2023-04-22T03:14:38.540Z,83.80
2023-04-22T03:15:38.543Z,83.49
2023-04-22T03:16:38.538Z,82.97
2023-04-22T03:17:38.493Z,83.04
2023-04-22T03:18:38.470Z,82.01
2023-04-22T03:19:38.740Z,81.76
2023-04-22T03:20:38.468Z,81.46
2023-04-22T03:21:40.521Z,81.25
2023-04-22T03:22:38.411Z,81.67
2023-04-22T03:23:38.405Z,81.70
2023-04-22T03:24:38.388Z,81.70
2023-04-22T03:25:38.390Z,81.60
2023-04-22T03:26:38.368Z,81.95
2023-04-22T03:27:38.372Z,82.05
2023-04-22T03:28:38.336Z,81.77
2023-04-22T03:29:38.591Z,82.60
2023-04-22T03:30:38.334Z,82.84
2023-04-22T03:31:38.309Z,82.98
2023-04-22T03:32:38.358Z,83.19
2023-04-22T03:33:38.282Z,83.95
2023-04-22T03:34:38.288Z,83.64
2023-04-22T03:35:38.275Z,84.78
2023-04-22T03:36:38.258Z,84.72
2023-04-22T03:37:38.232Z,84.34
2023-04-22T03:38:38.254Z,84.96
2023-04-22T03:39:45.524Z,85.47
2023-04-22T03:40:46.266Z,85.62
2023-04-22T03:41:38.191Z,86.13
2023-04-22T03:42:38.269Z,86.34
2023-04-22T03:43:38.199Z,86.34
2023-04-22T03:44:38.159Z,86.18
2023-04-22T03:45:38.297Z,87.21
2023-04-22T03:46:38.132Z,87.62
2023-04-22T03:47:38.163Z,87.93
2023-04-22T03:48:38.140Z,88.14
2023-04-22T03:49:38.401Z,88.20
2023-04-22T03:50:38.100Z,88.14
2023-04-22T03:51:38.082Z,88.10
2023-04-22T03:52:38.082Z,87.79
2023-04-22T03:53:38.063Z,87.48
2023-04-22T03:54:38.050Z,88.10
2023-04-22T03:55:38.081Z,87.99
2023-04-22T03:56:38.036Z,87.89
2023-04-22T03:57:38.013Z,88.10
2023-04-22T03:58:38.011Z,87.23
2023-04-22T03:59:38.187Z,87.85
2023-04-22T04:00:37.982Z,87.23
2023-04-22T04:01:38.008Z,87.74
2023-04-22T04:02:38.154Z,87.95
2023-04-22T04:03:38.221Z,87.13
2023-04-22T04:04:38.289Z,86.98
2023-04-22T04:05:38.002Z,87.08
2023-04-22T04:06:37.913Z,86.68
2023-04-22T04:07:37.931Z,86.57
2023-04-22T04:08:37.895Z,86.36
2023-04-22T04:09:38.228Z,86.47
2023-04-22T04:10:37.887Z,86.16
2023-04-22T04:11:37.871Z,86.68
2023-04-22T04:12:37.867Z,86.68
2023-04-22T04:13:45.471Z,86.57
2023-04-22T04:14:44.941Z,86.70
2023-04-22T04:15:37.903Z,85.87
2023-04-22T04:16:45.752Z,86.04
2023-04-22T04:17:37.848Z,84.56
2023-04-22T04:18:44.901Z,84.72
2023-04-22T04:19:37.981Z,83.31
2023-04-22T04:20:44.901Z,82.69
2023-04-22T04:21:44.871Z,81.62
2023-04-22T04:22:37.791Z,80.70
2023-04-22T04:23:37.722Z,81.21
2023-04-22T04:24:37.737Z,80.66
2023-04-22T04:25:37.788Z,80.56
2023-04-22T04:26:37.684Z,80.25
2023-04-22T04:27:37.675Z,80.25
2023-04-22T04:28:37.694Z,80.25
2023-04-22T04:29:37.832Z,80.56
2023-04-22T04:30:37.636Z,80.05
2023-04-22T04:31:37.710Z,80.77
2023-04-22T04:32:37.683Z,80.49
2023-04-22T04:33:37.620Z,80.80
2023-04-22T04:34:37.676Z,81.32
2023-04-22T04:35:37.582Z,81.52
2023-04-22T04:36:37.566Z,81.83
2023-04-22T04:37:37.580Z,81.97
2023-04-22T04:38:37.570Z,82.21
2023-04-22T04:39:37.911Z,82.21
2023-04-22T04:40:37.523Z,83.18
2023-04-22T04:41:37.506Z,82.87
2023-04-22T04:42:37.499Z,83.39
2023-04-22T04:43:37.503Z,83.53
2023-04-22T04:44:37.484Z,84.25
2023-04-22T04:45:37.461Z,83.63
2023-04-22T04:46:37.460Z,84.77
2023-04-22T04:47:37.449Z,84.45
2023-04-22T04:48:37.470Z,84.14
2023-04-22T04:49:37.548Z,84.25
2023-04-22T04:50:37.432Z,84.45
2023-04-22T04:51:37.396Z,84.87
2023-04-22T04:52:37.389Z,85.59
2023-04-22T04:53:37.388Z,85.52
2023-04-22T04:54:37.377Z,85.52
2023-04-22T04:55:37.352Z,85.73
2023-04-22T04:56:37.356Z,85.42
2023-04-22T04:57:38.470Z,85.73
2023-04-22T04:58:38.555Z,85.38
2023-04-22T04:59:37.533Z,85.31
2023-04-22T05:00:37.288Z,85.31
2023-04-22T05:01:37.295Z,85.38
2023-04-22T05:02:37.390Z,85.28
2023-04-22T05:03:37.443Z,85.49
2023-04-22T05:04:37.370Z,85.24
2023-04-22T05:05:37.234Z,85.59
2023-04-22T05:06:37.242Z,85.34
2023-04-22T05:07:37.241Z,85.14
2023-04-22T05:08:37.213Z,84.83
2023-04-22T05:09:37.521Z,84.69
2023-04-22T05:10:37.199Z,84.48
2023-04-22T05:11:37.187Z,84.34
2023-04-22T05:12:37.180Z,83.41
2023-04-22T05:13:37.149Z,83.27
2023-04-22T05:14:37.145Z,83.44
2023-04-22T05:15:37.124Z,81.76
2023-04-22T05:16:37.291Z,81.20
2023-04-22T05:17:37.143Z,80.14
2023-04-22T05:18:37.087Z,80.35
2023-04-22T05:19:37.243Z,79.93
2023-04-22T05:20:37.111Z,79.18
2023-04-22T05:21:37.096Z,78.77
2023-04-22T05:22:37.043Z,78.77
2023-04-22T05:23:37.040Z,79.18
2023-04-22T05:24:37.031Z,79.18
2023-04-22T05:25:37.021Z,79.28
2023-04-22T05:26:37.098Z,78.77
2023-04-22T05:27:37.011Z,79.28
2023-04-22T05:28:36.985Z,79.28
2023-04-22T05:29:36.993Z,78.56
2023-04-22T05:30:36.950Z,78.02
2023-04-22T05:31:37.041Z,78.32
2023-04-22T05:32:36.955Z,77.91
2023-04-22T05:33:36.940Z,78.42
2023-04-22T05:34:36.904Z,77.71
2023-04-22T05:35:36.922Z,77.36
2023-04-22T05:36:37.007Z,76.75
2023-04-22T05:37:36.896Z,75.79
2023-04-22T05:38:36.869Z,75.76
2023-04-22T05:39:36.904Z,74.29
2023-04-22T05:40:36.864Z,73.85
2023-04-22T05:41:36.829Z,73.33
2023-04-22T05:42:36.838Z,73.74
2023-04-22T05:43:36.824Z,73.40
2023-04-22T05:44:36.833Z,73.50
2023-04-22T05:45:36.854Z,73.61
2023-04-22T05:46:36.814Z,73.50
2023-04-22T05:47:36.801Z,72.55
2023-04-22T05:48:36.777Z,73.06
2023-04-22T05:49:36.766Z,72.69
2023-04-22T05:50:36.729Z,72.24
2023-04-22T05:51:36.722Z,72.65
2023-04-22T05:52:36.750Z,73.06
2023-04-22T05:53:36.713Z,72.75
2023-04-22T05:54:36.687Z,72.86
2023-04-22T05:55:36.692Z,73.16
2023-04-22T05:56:36.666Z,71.63
2023-04-22T05:57:36.666Z,70.68
2023-04-22T05:58:36.647Z,71.91
2023-04-22T05:59:36.633Z,72.31
2023-04-22T06:00:36.631Z,71.80
2023-04-22T06:01:36.600Z,72.00
2023-04-22T06:02:36.739Z,71.91
2023-04-22T06:03:36.886Z,72.21
2023-04-22T06:04:37.727Z,71.39
2023-04-22T06:05:36.669Z,71.56
2023-04-22T06:06:36.567Z,70.64
2023-04-22T06:07:36.554Z,70.61
2023-04-22T06:08:36.544Z,70.31
2023-04-22T06:09:36.510Z,71.19
2023-04-22T06:10:36.520Z,72.00
2023-04-22T06:11:36.488Z,70.89
2023-04-22T06:12:36.482Z,69.56
2023-04-22T06:13:36.467Z,69.22
2023-04-22T06:14:36.485Z,69.22
2023-04-22T06:15:36.467Z,70.41
2023-04-22T06:16:36.454Z,71.26
2023-04-22T06:17:36.435Z,68.82
2023-04-22T06:18:38.043Z,67.81
2023-04-22T06:19:36.468Z,69.10
2023-04-22T06:20:36.396Z,67.18
2023-04-22T06:21:36.389Z,60.45
2023-04-22T06:22:36.364Z,59.23
2023-04-22T06:23:36.371Z,61.00
2023-04-22T06:24:36.360Z,60.64
2023-04-22T06:25:36.343Z,58.67
2023-04-22T06:26:36.332Z,55.34
2023-04-22T06:27:36.320Z,56.07
2023-04-22T06:28:36.318Z,56.32
2023-04-22T06:29:36.326Z,54.25
2023-04-22T06:30:36.266Z,55.26
2023-04-22T06:31:36.374Z,54.68
2023-04-22T06:32:36.333Z,55.59
2023-04-22T06:33:36.266Z,56.23
2023-04-22T06:34:36.226Z,54.99
2023-04-22T06:35:38.474Z,56.07
2023-04-22T06:36:36.210Z,56.71
2023-04-22T06:37:36.194Z,56.38
2023-04-22T06:38:36.237Z,56.81
2023-04-22T06:39:36.234Z,55.85
2023-04-22T06:40:36.217Z,56.60
2023-04-22T06:41:36.155Z,55.54
2023-04-22T06:42:36.144Z,56.70
2023-04-22T06:43:36.124Z,54.79
2023-04-22T06:44:36.126Z,52.87
2023-04-22T06:45:36.105Z,53.05
2023-04-22T06:46:36.148Z,52.67
2023-04-22T06:47:36.095Z,56.02
2023-04-22T06:48:36.085Z,55.66
2023-04-22T06:49:36.076Z,54.23
2023-04-22T06:50:36.061Z,52.17
2023-04-22T06:51:36.068Z,53.57
2023-04-22T06:52:36.054Z,52.06
2023-04-22T06:53:36.019Z,51.59
2023-04-22T06:54:36.002Z,53.92
2023-04-22T06:55:36.024Z,53.80
2023-04-22T06:56:36.044Z,54.00
2023-04-22T06:57:35.980Z,52.09
2023-04-22T06:58:36.004Z,54.33
2023-04-22T06:59:36.093Z,52.39
2023-04-22T07:00:35.953Z,54.30
2023-04-22T07:01:35.964Z,55.66
2023-04-22T07:02:35.964Z,54.13
2023-04-22T07:03:36.135Z,52.72
2023-04-22T07:04:36.016Z,54.13
2023-04-22T07:05:37.241Z,54.33
2023-04-22T07:06:35.928Z,53.40
2023-04-22T07:07:35.873Z,53.32
2023-04-22T07:08:35.860Z,52.14
2023-04-22T07:09:36.091Z,52.67
2023-04-22T07:10:35.904Z,52.69
2023-04-22T07:11:36.005Z,54.00
2023-04-22T07:12:35.868Z,54.28
2023-04-22T07:13:35.790Z,54.18
2023-04-22T07:14:36.010Z,53.20
2023-04-22T07:15:35.768Z,52.62
2023-04-22T07:16:35.807Z,54.31
2023-04-22T07:17:35.830Z,56.73
2023-04-22T07:18:35.765Z,55.21
2023-04-22T07:19:35.759Z,56.60
2023-04-22T07:20:35.707Z,56.68
2023-04-22T07:21:35.706Z,55.91
2023-04-22T07:22:35.723Z,54.99
2023-04-22T07:23:35.679Z,53.38
2023-04-22T07:24:35.758Z,53.00
2023-04-22T07:25:35.674Z,53.90
2023-04-22T07:26:35.668Z,56.38
2023-04-22T07:27:37.033Z,56.96
2023-04-22T07:28:35.639Z,55.65
2023-04-22T07:29:35.696Z,56.38
2023-04-22T07:30:35.599Z,55.85
2023-04-22T07:31:35.643Z,55.74
2023-04-22T07:32:35.604Z,55.98
2023-04-22T07:33:35.813Z,57.87
2023-04-22T07:34:36.581Z,56.23
2023-04-22T07:35:35.584Z,55.72
2023-04-22T07:36:35.534Z,55.77
2023-04-22T07:37:35.539Z,55.98
2023-04-22T07:38:35.539Z,56.38
2023-04-22T07:39:35.499Z,56.81
2023-04-22T07:40:35.496Z,55.62
2023-04-22T07:41:35.530Z,56.02
2023-04-22T07:42:35.464Z,56.69
2023-04-22T07:43:35.462Z,57.09
2023-04-22T07:44:37.030Z,56.08
2023-04-22T07:45:35.497Z,56.48
2023-04-22T07:46:35.488Z,57.60
2023-04-22T07:47:35.440Z,57.17
2023-04-22T07:48:35.421Z,57.07
2023-04-22T07:49:35.605Z,59.90
2023-04-22T07:52:13.567Z,56.96
2023-04-22T07:53:14.309Z,56.53
2023-04-22T07:55:22.405Z,57.31
2023-04-22T07:56:22.406Z,54.38
2023-04-22T07:57:22.331Z,56.51
2023-04-22T07:58:22.344Z,58.40
2023-04-22T07:59:22.306Z,55.77
2023-04-22T08:00:22.420Z,56.25
2023-04-22T08:01:22.340Z,55.54
2023-04-22T08:02:22.366Z,55.79
2023-04-22T08:03:22.393Z,56.70
2023-04-22T08:04:22.456Z,55.77
2023-04-22T08:05:22.306Z,55.16
2023-04-22T08:06:22.264Z,53.70
2023-04-22T08:08:22.206Z,54.51
2023-04-22T08:09:22.194Z,54.03
2023-04-22T08:10:22.674Z,55.41
2023-04-22T08:11:23.513Z,53.22
2023-04-22T08:12:22.192Z,55.94
2023-04-22T08:13:22.175Z,57.54
2023-04-22T08:14:22.189Z,56.02
2023-04-22T08:15:22.138Z,55.19
2023-04-22T08:16:22.343Z,54.31
2023-04-22T08:17:22.284Z,55.69
2023-04-22T08:18:22.147Z,53.07
2023-04-22T08:19:22.106Z,53.67
2023-04-22T08:20:22.129Z,54.81
2023-04-22T08:21:22.145Z,54.10
2023-04-22T08:22:22.085Z,55.52
2023-04-22T08:23:22.072Z,53.60
2023-04-22T08:24:22.087Z,54.43
2023-04-22T08:25:22.027Z,55.62
2023-04-22T08:26:22.017Z,54.13
2023-04-22T08:27:22.051Z,55.74
2023-04-22T08:28:22.007Z,55.14
2023-04-22T08:29:21.990Z,53.42
2023-04-22T08:30:21.997Z,55.04
2023-04-22T08:31:21.985Z,55.01
2023-04-22T08:32:22.000Z,56.32
2023-04-22T08:33:21.952Z,55.49
2023-04-22T08:34:21.939Z,54.89
2023-04-22T08:35:21.929Z,54.99
2023-04-22T08:36:21.929Z,53.78
2023-04-22T08:37:21.891Z,55.19
2023-04-22T08:38:21.953Z,56.50
2023-04-22T08:39:21.889Z,55.87
2023-04-22T08:40:21.942Z,52.34
2023-04-22T08:41:21.858Z,53.60
2023-04-22T08:42:21.847Z,52.89
2023-04-22T08:43:21.834Z,55.32
2023-04-22T08:44:21.839Z,55.32
2023-04-22T08:45:21.834Z,55.52
2023-04-22T08:46:21.821Z,54.89
2023-04-22T08:47:21.786Z,53.78
2023-04-22T08:48:21.794Z,54.38
2023-04-22T08:49:21.746Z,53.38
2023-04-22T08:50:21.831Z,53.67
2023-04-22T08:51:21.758Z,55.90
2023-04-22T08:52:21.739Z,54.08
2023-04-22T08:53:24.247Z,54.63
2023-04-22T08:54:21.692Z,53.22
2023-04-22T08:55:21.679Z,54.38
2023-04-22T08:56:21.704Z,55.87
2023-04-22T08:57:21.654Z,54.96
2023-04-22T08:58:21.646Z,55.87
2023-04-22T08:59:21.633Z,55.74
2023-04-22T09:00:21.659Z,55.11
2023-04-22T09:01:21.648Z,55.99
2023-04-22T09:02:21.655Z,55.69
2023-04-22T09:03:21.655Z,54.76
2023-04-22T09:04:21.731Z,54.58
2023-04-22T09:05:21.571Z,56.17
2023-04-22T09:06:21.550Z,53.34
2023-04-22T09:07:21.552Z,53.65
2023-04-22T09:08:21.552Z,53.17
2023-04-22T09:09:21.532Z,53.09
2023-04-22T09:10:21.503Z,52.94
2023-04-22T09:11:21.496Z,54.69
2023-04-22T09:12:21.517Z,54.38
2023-04-22T09:13:21.532Z,54.38
2023-04-22T09:14:21.458Z,54.69
2023-04-22T09:15:21.462Z,54.58
2023-04-22T09:16:21.488Z,55.69
2023-04-22T09:17:21.480Z,55.19
2023-04-22T09:18:21.423Z,55.60
2023-04-22T09:19:21.414Z,56.00
2023-04-22T09:20:21.416Z,54.58
2023-04-22T09:21:21.381Z,56.20
2023-04-22T09:22:21.386Z,55.19
2023-04-22T09:23:21.373Z,55.90
2023-04-22T09:24:21.369Z,55.80
2023-04-22T09:25:24.094Z,55.49
2023-04-22T09:26:21.321Z,53.75
2023-04-22T09:27:21.332Z,54.99
2023-04-22T09:28:21.323Z,55.77
2023-04-22T09:29:21.309Z,56.05
2023-04-22T09:30:21.280Z,55.21
2023-04-22T09:31:21.277Z,52.72
2023-04-22T09:32:21.283Z,54.16
2023-04-22T09:33:21.262Z,55.44
2023-04-22T09:34:21.287Z,52.92
2023-04-22T09:35:21.226Z,55.14
2023-04-22T09:36:21.258Z,52.41
2023-04-22T09:37:21.199Z,52.82
2023-04-22T09:38:21.186Z,55.14
2023-04-22T09:39:21.207Z,54.23
2023-04-22T09:40:21.204Z,55.92
2023-04-22T09:41:21.174Z,53.20
2023-04-22T09:42:21.141Z,53.90
2023-04-22T09:43:21.147Z,51.68
2023-04-22T09:44:21.139Z,51.61
2023-04-22T09:45:21.111Z,53.14
2023-04-22T09:46:21.196Z,55.85
2023-04-22T09:47:21.084Z,53.93
2023-04-22T09:48:21.107Z,54.23
2023-04-22T09:49:21.102Z,55.65
2023-04-22T09:50:21.076Z,53.70
2023-04-22T09:51:21.062Z,53.20
2023-04-22T09:52:21.233Z,53.93
2023-04-22T09:53:21.042Z,55.44
2023-04-22T09:54:21.007Z,52.89
2023-04-22T09:55:21.009Z,53.60
2023-04-22T09:56:20.988Z,54.31
2023-04-22T09:57:20.993Z,53.90
2023-04-22T09:58:21.078Z,53.50
2023-04-22T09:59:20.991Z,56.23
2023-04-22T10:00:20.981Z,57.48
2023-04-22T10:01:20.995Z,53.34
2023-04-22T10:02:20.978Z,55.77
2023-04-22T10:03:21.020Z,55.06
2023-04-22T10:04:20.940Z,52.47
2023-04-22T10:05:20.895Z,52.56
2023-04-22T10:06:20.887Z,54.28
2023-04-22T10:07:20.862Z,54.56
2023-04-22T10:08:20.881Z,52.64
2023-04-22T10:09:20.837Z,53.75
2023-04-22T10:10:20.849Z,55.87
2023-04-22T10:11:20.814Z,53.22
2023-04-22T10:12:29.401Z,52.14
2023-04-22T10:13:21.811Z,52.64
2023-04-22T10:14:20.781Z,51.56
2023-04-22T10:15:20.776Z,52.44
2023-04-22T10:16:20.819Z,53.40
2023-04-22T10:17:20.752Z,52.29
2023-04-22T10:18:20.758Z,54.91
2023-04-22T10:19:20.737Z,54.41
2023-04-22T10:20:20.716Z,52.47
2023-04-22T10:21:20.703Z,54.99
2023-04-22T10:22:20.731Z,52.94
2023-04-22T10:23:20.677Z,52.34
2023-04-22T10:24:20.695Z,53.96
2023-04-22T10:25:20.812Z,51.86
2023-04-22T10:26:20.640Z,52.24
2023-04-22T10:27:20.629Z,53.25
2023-04-22T10:28:20.629Z,51.53
2023-04-22T10:29:20.633Z,52.74
2023-04-22T10:30:20.598Z,53.75
2023-04-22T10:31:20.606Z,52.94
2023-04-22T10:32:20.612Z,52.24
2023-04-22T10:33:20.561Z,51.53
2023-04-22T10:34:20.574Z,51.53
2023-04-22T10:35:20.536Z,54.36
2023-04-22T10:36:20.543Z,52.22
2023-04-22T10:37:20.516Z,54.30
2023-04-22T10:38:20.500Z,51.66
2023-04-22T10:39:20.490Z,51.93
2023-04-22T10:40:20.516Z,55.16
2023-04-22T10:41:20.466Z,51.61
2023-04-22T10:42:20.462Z,47.94
2023-04-22T10:43:20.454Z,48.56
2023-04-22T10:44:20.431Z,51.68
2023-04-22T10:45:20.452Z,50.20
2023-04-22T10:46:20.419Z,50.12
2023-04-22T10:47:20.413Z,51.66
2023-04-22T10:48:20.385Z,55.77
2023-04-22T10:49:20.403Z,55.24
2023-04-22T10:50:20.383Z,52.22
2023-04-22T10:51:20.372Z,51.99
2023-04-22T10:52:20.359Z,51.20
2023-04-22T10:53:20.329Z,51.73
2023-04-22T10:54:20.338Z,50.52
2023-04-22T10:55:20.325Z,51.33
2023-04-22T10:56:20.320Z,51.33
2023-04-22T10:57:20.310Z,52.36
2023-04-22T10:58:20.750Z,52.44
2023-04-22T10:59:20.289Z,50.73
2023-04-22T11:00:20.259Z,52.87
2023-04-22T11:01:20.250Z,53.25
2023-04-22T11:02:20.300Z,51.33
2023-04-22T11:03:20.400Z,53.83
2023-04-22T11:04:20.289Z,53.63
2023-04-22T11:05:20.217Z,52.57
2023-04-22T11:06:20.207Z,52.64
2023-04-22T11:07:20.176Z,51.93
2023-04-22T11:08:20.170Z,50.51
2023-04-22T11:09:20.170Z,51.11
2023-04-22T11:10:20.163Z,50.18
2023-04-22T11:11:20.189Z,48.17
2023-04-22T11:12:20.183Z,49.44
2023-04-22T11:13:20.104Z,49.99
2023-04-22T11:14:20.094Z,53.60
2023-04-22T11:15:20.078Z,54.00
2023-04-22T11:16:21.054Z,55.96
2023-04-22T11:17:20.055Z,51.93
2023-04-22T11:18:20.074Z,51.41
2023-04-22T11:19:20.036Z,49.98
2023-04-22T11:20:20.031Z,47.49
2023-04-22T11:21:20.017Z,50.13
2023-04-22T11:22:20.021Z,50.35
2023-04-22T11:23:20.002Z,49.07
2023-04-22T11:24:27.628Z,49.16
2023-04-22T11:25:28.799Z,54.68
2023-04-22T11:26:19.965Z,47.74
2023-04-22T11:27:27.563Z,51.54
2023-04-22T11:28:27.047Z,51.31
2023-04-22T11:29:27.059Z,50.98
2023-04-22T11:30:27.073Z,48.25
2023-04-22T11:31:19.998Z,48.32
2023-04-22T11:32:19.889Z,46.41
2023-04-22T11:33:27.073Z,45.53
2023-04-22T11:34:19.890Z,45.75
2023-04-22T11:35:19.860Z,47.31
2023-04-22T11:36:27.273Z,48.21
2023-04-22T11:37:19.843Z,51.36
2023-04-22T11:38:27.448Z,48.14
2023-04-22T11:39:29.509Z,48.41
2023-04-22T11:40:29.218Z,48.09
2023-04-22T11:41:26.950Z,48.47
2023-04-22T11:42:26.955Z,47.46
2023-04-22T11:43:26.936Z,44.97
2023-04-22T11:44:26.941Z,50.60
2023-04-22T11:45:28.660Z,47.86
2023-04-22T11:46:21.146Z,46.38
2023-04-22T11:47:19.713Z,46.62
2023-04-22T11:48:19.724Z,50.15
2023-04-22T11:49:19.692Z,52.14
2023-04-22T11:50:19.694Z,47.79
2023-04-22T11:51:19.688Z,48.27
2023-04-22T11:52:20.819Z,47.39
2023-04-22T11:53:19.648Z,49.80
2023-04-22T11:54:19.645Z,51.09
2023-04-22T11:55:19.633Z,50.26
2023-04-22T11:56:19.644Z,46.34
2023-04-22T11:57:19.601Z,51.36
2023-04-22T11:58:19.596Z,51.51
2023-04-22T11:59:19.599Z,46.26
2023-04-22T12:00:19.654Z,50.96
2023-04-22T12:01:19.654Z,50.13
2023-04-22T12:02:19.692Z,45.31
2023-04-22T12:03:19.752Z,44.15
2023-04-22T12:04:19.628Z,45.67
2023-04-22T12:05:19.523Z,46.58
2023-04-22T12:06:19.498Z,46.48
2023-04-22T12:07:19.498Z,48.41
2023-04-22T12:08:19.474Z,46.50
2023-04-22T12:09:19.484Z,46.91
2023-04-22T12:10:19.483Z,47.89
2023-04-22T12:11:19.446Z,50.18
2023-04-22T12:12:19.432Z,50.15
2023-04-22T12:13:19.442Z,48.55
2023-04-22T12:14:19.432Z,48.05
2023-04-22T12:15:19.408Z,48.32
2023-04-22T12:16:20.019Z,48.32
2023-04-22T12:17:19.437Z,46.11
2023-04-22T12:18:19.380Z,46.51
2023-04-22T12:19:19.361Z,49.73
2023-04-22T12:20:19.352Z,50.91
2023-04-22T12:21:19.375Z,50.68
2023-04-22T12:22:19.318Z,50.26
2023-04-22T12:23:19.303Z,46.95
2023-04-22T12:24:19.295Z,48.13
2023-04-22T12:25:19.306Z,48.23
2023-04-22T12:26:19.267Z,45.32
2023-04-22T12:27:19.278Z,47.83
2023-04-22T12:28:19.245Z,44.82
2023-04-22T12:29:19.237Z,46.11
2023-04-22T12:30:19.245Z,46.20
2023-04-22T12:31:19.274Z,46.08
2023-04-22T12:32:19.203Z,45.78
2023-04-22T12:33:19.188Z,44.38
2023-04-22T12:34:19.183Z,43.80
2023-04-22T12:35:20.881Z,44.74
2023-04-22T12:36:19.162Z,43.74
2023-04-22T12:37:19.157Z,43.86
2023-04-22T12:38:19.144Z,48.35
2023-04-22T12:39:19.132Z,45.45
2023-04-22T12:40:19.143Z,47.17
2023-04-22T12:41:19.141Z,48.35
2023-04-22T12:42:19.097Z,45.45
2023-04-22T12:43:19.118Z,46.17
2023-04-22T12:44:19.077Z,46.37
2023-04-22T12:45:19.065Z,49.48
2023-04-22T12:46:19.096Z,48.86
2023-04-22T12:47:19.102Z,45.67
2023-04-22T12:48:19.028Z,46.34
2023-04-22T12:49:19.031Z,46.44
2023-04-22T12:50:19.001Z,50.15
2023-04-22T12:51:19.029Z,51.06
2023-04-22T12:52:18.983Z,48.12
2023-04-22T12:53:18.982Z,49.80
2023-04-22T12:54:18.978Z,47.58
2023-04-22T12:55:19.009Z,47.47
2023-04-22T12:56:18.934Z,48.08